LRBC/BCM METAR and TAF weather

Enter ICAO airport designator
Station Type Date Time Source
LRBC METAR 2020/01/19 00:30 UTC NOAA

LRBC 190030Z 18009KT 9000 NSC M03/M04 Q1026


Station Type Date Time Source
LRBC Decoded METAR 2020/01/19 00:30 UTC NOAA

Bacau, Romania (LRBC) 46-35N 026-58E 190M
Jan 18, 2020 - 07:30 PM EST / 2020.01.19 0030 UTC
Wind: from the S (180 degrees) at 10 MPH (9 KT):0
Visibility: 5 mile(s):0
Temperature: 26 F (-3 C)
Windchill: 15 F (-9 C):1
Dew Point: 24 F (-4 C)
Relative Humidity: 92%
Pressure (altimeter): 30.30 in. Hg (1026 hPa)
ob: LRBC 190030Z 18009KT 9000 NSC M03/M04 Q1026
cycle: 0

Station Type Date Time Source
LRBC TAF 2010/08/31 20:30 UTC NOAA

TAF LRBC 312030Z 3121/0203 CNL

Example: see airport list